sensor_id;sensor_type;location;lat;lon;timestamp;P1;durP1;ratioP1;P2;durP2;ratioP2
32228;SDS011;18717;48.034;11.186;2024-03-29T00:00:24;6.35;;;6.05;;
32228;SDS011;18717;48.034;11.186;2024-03-29T00:02:50;6.32;;;6.03;;
32228;SDS011;18717;48.034;11.186;2024-03-29T00:05:16;6.68;;;6.38;;
32228;SDS011;18717;48.034;11.186;2024-03-29T00:07:41;6.32;;;5.80;;
32228;SDS011;18717;48.034;11.186;2024-03-29T00:10:08;6.20;;;5.90;;
32228;SDS011;18717;48.034;11.186;2024-03-29T00:12:34;6.55;;;6.25;;
32228;SDS011;18717;48.034;11.186;2024-03-29T00:14:59;6.88;;;6.47;;
32228;SDS011;18717;48.034;11.186;2024-03-29T00:17:27;6.30;;;6.00;;
32228;SDS011;18717;48.034;11.186;2024-03-29T00:19:53;6.60;;;6.30;;
32228;SDS011;18717;48.034;11.186;2024-03-29T00:22:19;6.38;;;6.10;;
32228;SDS011;18717;48.034;11.186;2024-03-29T00:24:44;6.40;;;6.10;;
32228;SDS011;18717;48.034;11.186;2024-03-29T00:27:10;6.47;;;6.18;;
32228;SDS011;18717;48.034;11.186;2024-03-29T00:29:36;6.50;;;6.25;;
32228;SDS011;18717;48.034;11.186;2024-03-29T00:32:02;6.60;;;6.30;;
32228;SDS011;18717;48.034;11.186;2024-03-29T00:34:29;6.55;;;6.25;;
32228;SDS011;18717;48.034;11.186;2024-03-29T00:36:55;6.95;;;6.60;;
32228;SDS011;18717;48.034;11.186;2024-03-29T00:39:21;6.38;;;6.07;;
32228;SDS011;18717;48.034;11.186;2024-03-29T00:41:47;6.60;;;6.30;;
32228;SDS011;18717;48.034;11.186;2024-03-29T00:44:13;6.38;;;6.07;;
32228;SDS011;18717;48.034;11.186;2024-03-29T00:46:38;6.15;;;5.95;;
32228;SDS011;18717;48.034;11.186;2024-03-29T00:49:04;6.18;;;5.95;;
32228;SDS011;18717;48.034;11.186;2024-03-29T00:51:31;6.90;;;6.60;;
32228;SDS011;18717;48.034;11.186;2024-03-29T00:53:57;6.35;;;6.05;;
32228;SDS011;18717;48.034;11.186;2024-03-29T00:56:23;6.35;;;5.82;;
32228;SDS011;18717;48.034;11.186;2024-03-29T00:58:49;6.95;;;6.65;;
32228;SDS011;18717;48.034;11.186;2024-03-29T01:01:15;6.60;;;6.30;;
32228;SDS011;18717;48.034;11.186;2024-03-29T01:03:41;6.60;;;6.40;;
32228;SDS011;18717;48.034;11.186;2024-03-29T01:06:07;6.85;;;6.55;;
32228;SDS011;18717;48.034;11.186;2024-03-29T01:08:34;6.53;;;6.10;;
32228;SDS011;18717;48.034;11.186;2024-03-29T01:11:00;6.47;;;6.18;;
32228;SDS011;18717;48.034;11.186;2024-03-29T01:13:26;5.85;;;5.65;;
32228;SDS011;18717;48.034;11.186;2024-03-29T01:15:51;6.28;;;5.97;;
32228;SDS011;18717;48.034;11.186;2024-03-29T01:18:17;6.57;;;6.28;;
32228;SDS011;18717;48.034;11.186;2024-03-29T01:20:43;6.15;;;5.95;;
32228;SDS011;18717;48.034;11.186;2024-03-29T01:23:09;6.30;;;6.07;;
32228;SDS011;18717;48.034;11.186;2024-03-29T01:25:36;6.50;;;6.20;;
32228;SDS011;18717;48.034;11.186;2024-03-29T01:28:02;6.40;;;6.00;;
32228;SDS011;18717;48.034;11.186;2024-03-29T01:30:28;6.57;;;6.25;;
32228;SDS011;18717;48.034;11.186;2024-03-29T01:32:54;6.55;;;6.25;;
32228;SDS011;18717;48.034;11.186;2024-03-29T01:35:20;6.70;;;6.40;;
32228;SDS011;18717;48.034;11.186;2024-03-29T01:37:46;6.93;;;6.63;;
32228;SDS011;18717;48.034;11.186;2024-03-29T01:40:12;6.55;;;6.35;;
32228;SDS011;18717;48.034;11.186;2024-03-29T01:42:39;6.80;;;6.50;;
32228;SDS011;18717;48.034;11.186;2024-03-29T01:45:05;7.30;;;6.80;;
32228;SDS011;18717;48.034;11.186;2024-03-29T01:47:33;6.40;;;6.10;;
32228;SDS011;18717;48.034;11.186;2024-03-29T01:50:00;6.22;;;5.93;;
32228;SDS011;18717;48.034;11.186;2024-03-29T01:52:28;5.97;;;5.70;;
32228;SDS011;18717;48.034;11.186;2024-03-29T01:54:55;5.90;;;5.70;;
32228;SDS011;18717;48.034;11.186;2024-03-29T01:57:22;6.43;;;6.20;;
32228;SDS011;18717;48.034;11.186;2024-03-29T01:59:51;6.22;;;6.03;;
32228;SDS011;18717;48.034;11.186;2024-03-29T02:02:18;6.30;;;6.00;;
32228;SDS011;18717;48.034;11.186;2024-03-29T02:04:45;6.28;;;6.07;;
32228;SDS011;18717;48.034;11.186;2024-03-29T02:07:12;6.35;;;6.05;;
32228;SDS011;18717;48.034;11.186;2024-03-29T02:09:38;6.30;;;6.00;;
32228;SDS011;18717;48.034;11.186;2024-03-29T02:12:05;6.63;;;6.32;;
32228;SDS011;18717;48.034;11.186;2024-03-29T02:14:32;6.13;;;5.82;;
32228;SDS011;18717;48.034;11.186;2024-03-29T02:17:00;5.72;;;5.53;;
32228;SDS011;18717;48.034;11.186;2024-03-29T02:19:26;6.53;;;6.22;;
32228;SDS011;18717;48.034;11.186;2024-03-29T02:21:53;6.03;;;5.82;;
32228;SDS011;18717;48.034;11.186;2024-03-29T02:24:23;6.00;;;5.80;;
32228;SDS011;18717;48.034;11.186;2024-03-29T02:26:50;6.43;;;6.13;;
32228;SDS011;18717;48.034;11.186;2024-03-29T02:29:17;6.15;;;5.85;;
32228;SDS011;18717;48.034;11.186;2024-03-29T02:31:44;6.22;;;6.03;;
32228;SDS011;18717;48.034;11.186;2024-03-29T02:34:11;6.32;;;6.13;;
32228;SDS011;18717;48.034;11.186;2024-03-29T02:36:38;5.95;;;5.75;;
32228;SDS011;18717;48.034;11.186;2024-03-29T02:39:04;5.93;;;5.72;;
32228;SDS011;18717;48.034;11.186;2024-03-29T02:41:33;6.10;;;5.90;;
32228;SDS011;18717;48.034;11.186;2024-03-29T02:43:59;6.13;;;5.88;;
32228;SDS011;18717;48.034;11.186;2024-03-29T02:46:26;6.00;;;5.80;;
32228;SDS011;18717;48.034;11.186;2024-03-29T02:48:53;5.68;;;5.47;;
32228;SDS011;18717;48.034;11.186;2024-03-29T02:51:19;6.45;;;6.25;;
32228;SDS011;18717;48.034;11.186;2024-03-29T02:53:45;5.95;;;5.75;;
32228;SDS011;18717;48.034;11.186;2024-03-29T02:56:11;5.80;;;5.60;;
32228;SDS011;18717;48.034;11.186;2024-03-29T02:58:39;6.47;;;6.28;;
32228;SDS011;18717;48.034;11.186;2024-03-29T03:01:06;5.70;;;5.50;;
32228;SDS011;18717;48.034;11.186;2024-03-29T03:03:33;5.90;;;5.70;;
32228;SDS011;18717;48.034;11.186;2024-03-29T03:05:59;6.07;;;5.88;;
32228;SDS011;18717;48.034;11.186;2024-03-29T03:08:25;6.07;;;5.88;;
32228;SDS011;18717;48.034;11.186;2024-03-29T03:11:09;6.18;;;5.88;;
32228;SDS011;18717;48.034;11.186;2024-03-29T03:13:36;6.35;;;6.15;;
32228;SDS011;18717;48.034;11.186;2024-03-29T03:16:05;5.90;;;5.70;;
32228;SDS011;18717;48.034;11.186;2024-03-29T03:18:31;6.05;;;5.70;;
32228;SDS011;18717;48.034;11.186;2024-03-29T03:20:59;5.95;;;5.75;;
32228;SDS011;18717;48.034;11.186;2024-03-29T03:23:25;5.95;;;5.75;;
32228;SDS011;18717;48.034;11.186;2024-03-29T03:25:55;5.95;;;5.75;;
32228;SDS011;18717;48.034;11.186;2024-03-29T03:28:22;6.18;;;5.97;;
32228;SDS011;18717;48.034;11.186;2024-03-29T03:30:49;6.13;;;5.93;;
32228;SDS011;18717;48.034;11.186;2024-03-29T03:33:16;5.57;;;5.38;;
32228;SDS011;18717;48.034;11.186;2024-03-29T03:35:43;6.43;;;6.22;;
32228;SDS011;18717;48.034;11.186;2024-03-29T03:38:09;6.60;;;6.32;;
32228;SDS011;18717;48.034;11.186;2024-03-29T03:40:36;6.40;;;6.20;;
32228;SDS011;18717;48.034;11.186;2024-03-29T03:43:02;6.47;;;6.28;;
32228;SDS011;18717;48.034;11.186;2024-03-29T03:45:33;6.40;;;6.10;;
32228;SDS011;18717;48.034;11.186;2024-03-29T03:47:59;6.10;;;5.90;;
32228;SDS011;18717;48.034;11.186;2024-03-29T03:50:27;6.30;;;6.10;;
32228;SDS011;18717;48.034;11.186;2024-03-29T03:52:53;6.30;;;6.10;;
32228;SDS011;18717;48.034;11.186;2024-03-29T03:55:19;6.20;;;6.00;;
32228;SDS011;18717;48.034;11.186;2024-03-29T03:57:45;5.75;;;5.55;;
32228;SDS011;18717;48.034;11.186;2024-03-29T04:00:12;6.28;;;5.88;;
32228;SDS011;18717;48.034;11.186;2024-03-29T04:02:39;6.15;;;5.95;;
32228;SDS011;18717;48.034;11.186;2024-03-29T04:05:06;5.72;;;5.53;;
32228;SDS011;18717;48.034;11.186;2024-03-29T04:07:34;5.50;;;5.30;;
32228;SDS011;18717;48.034;11.186;2024-03-29T04:10:00;5.85;;;5.60;;
32228;SDS011;18717;48.034;11.186;2024-03-29T04:12:26;6.40;;;6.18;;
32228;SDS011;18717;48.034;11.186;2024-03-29T04:14:53;5.88;;;5.57;;
32228;SDS011;18717;48.034;11.186;2024-03-29T04:17:18;5.93;;;5.63;;
32228;SDS011;18717;48.034;11.186;2024-03-29T04:19:45;6.47;;;6.28;;
32228;SDS011;18717;48.034;11.186;2024-03-29T04:22:11;6.00;;;5.70;;
32228;SDS011;18717;48.034;11.186;2024-03-29T04:24:39;6.05;;;5.75;;
32228;SDS011;18717;48.034;11.186;2024-03-29T04:27:05;6.28;;;5.90;;
32228;SDS011;18717;48.034;11.186;2024-03-29T04:29:31;6.22;;;5.93;;
32228;SDS011;18717;48.034;11.186;2024-03-29T04:31:57;5.97;;;5.78;;
32228;SDS011;18717;48.034;11.186;2024-03-29T04:34:24;6.20;;;6.00;;
32228;SDS011;18717;48.034;11.186;2024-03-29T04:36:49;5.97;;;5.75;;
32228;SDS011;18717;48.034;11.186;2024-03-29T04:39:16;6.25;;;5.95;;
32228;SDS011;18717;48.034;11.186;2024-03-29T04:41:44;6.32;;;6.10;;
32228;SDS011;18717;48.034;11.186;2024-03-29T04:44:11;5.80;;;5.60;;
32228;SDS011;18717;48.034;11.186;2024-03-29T04:46:39;6.38;;;5.97;;
32228;SDS011;18717;48.034;11.186;2024-03-29T04:49:05;6.30;;;6.10;;
32228;SDS011;18717;48.034;11.186;2024-03-29T04:51:32;6.05;;;5.85;;
32228;SDS011;18717;48.034;11.186;2024-03-29T04:53:59;5.95;;;5.75;;
32228;SDS011;18717;48.034;11.186;2024-03-29T04:56:26;5.75;;;5.55;;
32228;SDS011;18717;48.034;11.186;2024-03-29T04:58:54;6.00;;;5.80;;
32228;SDS011;18717;48.034;11.186;2024-03-29T05:01:21;6.22;;;6.03;;
32228;SDS011;18717;48.034;11.186;2024-03-29T05:03:47;5.80;;;5.60;;
32228;SDS011;18717;48.034;11.186;2024-03-29T05:06:16;5.65;;;5.45;;
32228;SDS011;18717;48.034;11.186;2024-03-29T05:08:43;6.35;;;6.05;;
32228;SDS011;18717;48.034;11.186;2024-03-29T05:11:10;6.45;;;6.15;;
32228;SDS011;18717;48.034;11.186;2024-03-29T05:13:39;6.35;;;6.07;;
32228;SDS011;18717;48.034;11.186;2024-03-29T05:16:07;6.82;;;6.25;;
32228;SDS011;18717;48.034;11.186;2024-03-29T05:18:34;5.95;;;5.75;;
32228;SDS011;18717;48.034;11.186;2024-03-29T05:21:01;5.88;;;5.68;;
32228;SDS011;18717;48.034;11.186;2024-03-29T05:23:28;6.80;;;6.50;;
32228;SDS011;18717;48.034;11.186;2024-03-29T05:25:54;5.70;;;5.50;;
32228;SDS011;18717;48.034;11.186;2024-03-29T05:28:21;6.07;;;5.78;;
32228;SDS011;18717;48.034;11.186;2024-03-29T05:30:48;6.10;;;5.85;;
32228;SDS011;18717;48.034;11.186;2024-03-29T05:33:16;5.85;;;5.60;;
32228;SDS011;18717;48.034;11.186;2024-03-29T05:35:43;6.22;;;6.03;;
32228;SDS011;18717;48.034;11.186;2024-03-29T05:38:09;6.10;;;5.90;;
32228;SDS011;18717;48.034;11.186;2024-03-29T05:40:36;6.22;;;5.78;;
32228;SDS011;18717;48.034;11.186;2024-03-29T05:43:04;5.78;;;5.57;;
32228;SDS011;18717;48.034;11.186;2024-03-29T05:45:31;6.63;;;6.38;;
32228;SDS011;18717;48.034;11.186;2024-03-29T05:47:58;6.43;;;6.13;;
32228;SDS011;18717;48.034;11.186;2024-03-29T05:50:26;6.70;;;6.50;;
32228;SDS011;18717;48.034;11.186;2024-03-29T05:52:53;6.88;;;6.57;;
32228;SDS011;18717;48.034;11.186;2024-03-29T05:55:20;6.45;;;6.18;;
32228;SDS011;18717;48.034;11.186;2024-03-29T05:57:46;6.82;;;6.53;;
32228;SDS011;18717;48.034;11.186;2024-03-29T06:00:14;6.60;;;6.40;;
32228;SDS011;18717;48.034;11.186;2024-03-29T06:02:41;7.15;;;6.85;;
32228;SDS011;18717;48.034;11.186;2024-03-29T06:05:10;6.72;;;6.53;;
32228;SDS011;18717;48.034;11.186;2024-03-29T06:07:38;7.13;;;6.82;;
32228;SDS011;18717;48.034;11.186;2024-03-29T06:10:05;6.78;;;6.47;;
32228;SDS011;18717;48.034;11.186;2024-03-29T06:12:34;7.00;;;6.70;;
32228;SDS011;18717;48.034;11.186;2024-03-29T06:15:01;6.63;;;6.20;;
32228;SDS011;18717;48.034;11.186;2024-03-29T06:17:45;7.05;;;6.75;;
32228;SDS011;18717;48.034;11.186;2024-03-29T06:20:12;7.03;;;6.72;;
32228;SDS011;18717;48.034;11.186;2024-03-29T06:22:40;6.30;;;6.10;;
32228;SDS011;18717;48.034;11.186;2024-03-29T06:25:07;6.45;;;6.25;;
32228;SDS011;18717;48.034;11.186;2024-03-29T06:27:35;6.85;;;6.55;;
32228;SDS011;18717;48.034;11.186;2024-03-29T06:30:03;6.82;;;6.53;;
32228;SDS011;18717;48.034;11.186;2024-03-29T06:32:30;6.57;;;6.32;;
32228;SDS011;18717;48.034;11.186;2024-03-29T06:34:57;6.55;;;6.35;;
32228;SDS011;18717;48.034;11.186;2024-03-29T06:37:25;6.72;;;6.53;;
32228;SDS011;18717;48.034;11.186;2024-03-29T06:39:54;7.13;;;6.82;;
32228;SDS011;18717;48.034;11.186;2024-03-29T06:42:20;6.75;;;6.45;;
32228;SDS011;18717;48.034;11.186;2024-03-29T06:44:47;7.03;;;6.72;;
32228;SDS011;18717;48.034;11.186;2024-03-29T06:47:14;8.32;;;7.88;;
32228;SDS011;18717;48.034;11.186;2024-03-29T06:49:41;6.93;;;6.65;;
32228;SDS011;18717;48.034;11.186;2024-03-29T06:52:08;7.90;;;7.60;;
32228;SDS011;18717;48.034;11.186;2024-03-29T06:54:35;7.63;;;7.32;;
32228;SDS011;18717;48.034;11.186;2024-03-29T06:57:03;7.25;;;7.00;;
32228;SDS011;18717;48.034;11.186;2024-03-29T06:59:30;8.10;;;7.80;;
32228;SDS011;18717;48.034;11.186;2024-03-29T07:01:57;7.70;;;7.40;;
32228;SDS011;18717;48.034;11.186;2024-03-29T07:04:24;8.15;;;7.85;;
32228;SDS011;18717;48.034;11.186;2024-03-29T07:06:53;7.72;;;7.43;;
32228;SDS011;18717;48.034;11.186;2024-03-29T07:09:20;8.00;;;7.70;;
32228;SDS011;18717;48.034;11.186;2024-03-29T07:11:48;8.30;;;7.80;;
32228;SDS011;18717;48.034;11.186;2024-03-29T07:14:17;8.25;;;7.95;;
32228;SDS011;18717;48.034;11.186;2024-03-29T07:16:45;7.97;;;7.68;;
32228;SDS011;18717;48.034;11.186;2024-03-29T07:19:12;8.35;;;7.93;;
32228;SDS011;18717;48.034;11.186;2024-03-29T07:21:41;8.02;;;7.72;;
32228;SDS011;18717;48.034;11.186;2024-03-29T07:24:08;8.55;;;8.02;;
32228;SDS011;18717;48.034;11.186;2024-03-29T07:26:35;8.45;;;8.07;;
32228;SDS011;18717;48.034;11.186;2024-03-29T07:29:02;7.78;;;7.47;;
32228;SDS011;18717;48.034;11.186;2024-03-29T07:31:32;8.90;;;8.30;;
32228;SDS011;18717;48.034;11.186;2024-03-29T07:33:59;8.73;;;8.23;;
32228;SDS011;18717;48.034;11.186;2024-03-29T07:36:25;9.60;;;9.10;;
32228;SDS011;18717;48.034;11.186;2024-03-29T07:38:56;9.55;;;9.07;;
32228;SDS011;18717;48.034;11.186;2024-03-29T07:41:23;9.80;;;9.30;;
32228;SDS011;18717;48.034;11.186;2024-03-29T07:43:53;10.40;;;9.75;;
32228;SDS011;18717;48.034;11.186;2024-03-29T07:46:22;9.15;;;8.75;;
32228;SDS011;18717;48.034;11.186;2024-03-29T07:48:50;9.38;;;8.98;;
32228;SDS011;18717;48.034;11.186;2024-03-29T07:51:17;8.88;;;8.50;;
32228;SDS011;18717;48.034;11.186;2024-03-29T07:53:43;9.23;;;8.82;;
32228;SDS011;18717;48.034;11.186;2024-03-29T07:56:10;8.98;;;8.60;;
32228;SDS011;18717;48.034;11.186;2024-03-29T07:58:37;9.55;;;9.05;;
32228;SDS011;18717;48.034;11.186;2024-03-29T08:01:04;9.35;;;8.95;;
32228;SDS011;18717;48.034;11.186;2024-03-29T08:03:31;10.20;;;9.70;;
32228;SDS011;18717;48.034;11.186;2024-03-29T08:06:01;10.00;;;9.50;;
32228;SDS011;18717;48.034;11.186;2024-03-29T08:08:29;9.57;;;9.18;;
32228;SDS011;18717;48.034;11.186;2024-03-29T08:10:56;10.18;;;9.55;;
32228;SDS011;18717;48.034;11.186;2024-03-29T08:13:23;10.60;;;10.10;;
32228;SDS011;18717;48.034;11.186;2024-03-29T08:15:55;11.30;;;10.63;;
32228;SDS011;18717;48.034;11.186;2024-03-29T08:18:22;10.23;;;9.63;;
32228;SDS011;18717;48.034;11.186;2024-03-29T08:20:49;9.70;;;9.30;;
32228;SDS011;18717;48.034;11.186;2024-03-29T08:23:17;11.25;;;10.57;;
32228;SDS011;18717;48.034;11.186;2024-03-29T08:25:44;10.50;;;10.00;;
32228;SDS011;18717;48.034;11.186;2024-03-29T08:28:11;11.32;;;10.73;;
32228;SDS011;18717;48.034;11.186;2024-03-29T08:30:38;11.07;;;10.48;;
32228;SDS011;18717;48.034;11.186;2024-03-29T08:33:04;10.82;;;10.23;;
32228;SDS011;18717;48.034;11.186;2024-03-29T08:35:31;11.20;;;10.70;;
32228;SDS011;18717;48.034;11.186;2024-03-29T08:37:59;10.77;;;10.27;;
32228;SDS011;18717;48.034;11.186;2024-03-29T08:40:28;10.52;;;10.13;;
32228;SDS011;18717;48.034;11.186;2024-03-29T08:42:57;10.95;;;10.45;;
32228;SDS011;18717;48.034;11.186;2024-03-29T08:45:24;10.07;;;9.68;;
32228;SDS011;18717;48.034;11.186;2024-03-29T08:47:50;11.18;;;10.68;;
32228;SDS011;18717;48.034;11.186;2024-03-29T08:50:18;10.95;;;10.45;;
32228;SDS011;18717;48.034;11.186;2024-03-29T08:52:45;10.73;;;10.27;;
32228;SDS011;18717;48.034;11.186;2024-03-29T08:55:11;10.73;;;10.30;;
32228;SDS011;18717;48.034;11.186;2024-03-29T08:57:40;10.68;;;10.07;;
32228;SDS011;18717;48.034;11.186;2024-03-29T09:00:08;10.38;;;9.90;;
32228;SDS011;18717;48.034;11.186;2024-03-29T09:02:35;10.75;;;10.35;;
32228;SDS011;18717;48.034;11.186;2024-03-29T09:05:02;11.35;;;10.63;;
32228;SDS011;18717;48.034;11.186;2024-03-29T09:07:29;11.27;;;10.45;;
32228;SDS011;18717;48.034;11.186;2024-03-29T09:09:56;10.98;;;10.48;;
32228;SDS011;18717;48.034;11.186;2024-03-29T09:12:22;11.05;;;10.65;;
32228;SDS011;18717;48.034;11.186;2024-03-29T09:14:50;10.55;;;10.05;;
32228;SDS011;18717;48.034;11.186;2024-03-29T09:17:17;10.07;;;9.68;;
32228;SDS011;18717;48.034;11.186;2024-03-29T09:19:49;10.77;;;10.30;;
32228;SDS011;18717;48.034;11.186;2024-03-29T09:22:15;10.65;;;10.25;;
32228;SDS011;18717;48.034;11.186;2024-03-29T09:24:42;10.93;;;10.52;;
32228;SDS011;18717;48.034;11.186;2024-03-29T09:27:09;10.80;;;10.40;;
32228;SDS011;18717;48.034;11.186;2024-03-29T09:29:36;11.82;;;11.02;;
32228;SDS011;18717;48.034;11.186;2024-03-29T09:32:04;11.15;;;10.50;;
32228;SDS011;18717;48.034;11.186;2024-03-29T09:34:31;10.75;;;10.25;;
32228;SDS011;18717;48.034;11.186;2024-03-29T09:36:58;10.65;;;10.25;;
32228;SDS011;18717;48.034;11.186;2024-03-29T09:39:24;11.15;;;10.55;;
32228;SDS011;18717;48.034;11.186;2024-03-29T09:41:51;11.65;;;11.15;;
32228;SDS011;18717;48.034;11.186;2024-03-29T09:44:20;11.20;;;10.45;;
32228;SDS011;18717;48.034;11.186;2024-03-29T09:46:48;11.70;;;11.05;;
32228;SDS011;18717;48.034;11.186;2024-03-29T09:49:16;11.65;;;11.05;;
32228;SDS011;18717;48.034;11.186;2024-03-29T09:51:43;10.88;;;10.48;;
32228;SDS011;18717;48.034;11.186;2024-03-29T09:54:12;11.85;;;11.35;;
32228;SDS011;18717;48.034;11.186;2024-03-29T09:56:40;11.05;;;10.57;;
32228;SDS011;18717;48.034;11.186;2024-03-29T09:59:07;11.57;;;11.13;;
32228;SDS011;18717;48.034;11.186;2024-03-29T10:01:34;11.32;;;10.80;;
32228;SDS011;18717;48.034;11.186;2024-03-29T10:04:01;11.25;;;10.65;;
32228;SDS011;18717;48.034;11.186;2024-03-29T10:06:30;11.38;;;10.88;;
32228;SDS011;18717;48.034;11.186;2024-03-29T10:09:00;11.63;;;11.07;;
32228;SDS011;18717;48.034;11.186;2024-03-29T10:11:27;11.45;;;10.85;;
32228;SDS011;18717;48.034;11.186;2024-03-29T10:13:54;10.50;;;10.10;;
32228;SDS011;18717;48.034;11.186;2024-03-29T10:16:21;11.73;;;11.07;;
32228;SDS011;18717;48.034;11.186;2024-03-29T10:18:49;11.57;;;10.93;;
32228;SDS011;18717;48.034;11.186;2024-03-29T10:21:16;11.25;;;10.85;;
32228;SDS011;18717;48.034;11.186;2024-03-29T10:23:46;10.48;;;10.07;;
32228;SDS011;18717;48.034;11.186;2024-03-29T10:26:13;11.13;;;10.65;;
32228;SDS011;18717;48.034;11.186;2024-03-29T10:28:41;11.02;;;10.60;;
32228;SDS011;18717;48.034;11.186;2024-03-29T10:31:10;11.93;;;11.43;;
32228;SDS011;18717;48.034;11.186;2024-03-29T10:33:37;11.00;;;10.60;;
32228;SDS011;18717;48.034;11.186;2024-03-29T10:36:04;11.90;;;11.40;;
32228;SDS011;18717;48.034;11.186;2024-03-29T10:38:31;11.10;;;10.60;;
32228;SDS011;18717;48.034;11.186;2024-03-29T10:40:59;11.20;;;10.70;;
32228;SDS011;18717;48.034;11.186;2024-03-29T10:43:28;11.05;;;10.50;;
32228;SDS011;18717;48.034;11.186;2024-03-29T10:45:55;10.65;;;10.15;;
32228;SDS011;18717;48.034;11.186;2024-03-29T10:48:25;11.98;;;11.48;;
32228;SDS011;18717;48.034;11.186;2024-03-29T10:50:52;12.00;;;11.50;;
32228;SDS011;18717;48.034;11.186;2024-03-29T10:53:20;11.30;;;10.80;;
32228;SDS011;18717;48.034;11.186;2024-03-29T10:55:48;11.70;;;11.20;;
32228;SDS011;18717;48.034;11.186;2024-03-29T10:58:18;12.43;;;11.82;;
32228;SDS011;18717;48.034;11.186;2024-03-29T11:00:50;11.32;;;10.82;;
32228;SDS011;18717;48.034;11.186;2024-03-29T11:03:23;11.87;;;11.37;;
32228;SDS011;18717;48.034;11.186;2024-03-29T11:05:55;11.15;;;10.75;;
32228;SDS011;18717;48.034;11.186;2024-03-29T11:08:26;10.98;;;10.52;;
32228;SDS011;18717;48.034;11.186;2024-03-29T11:10:57;11.77;;;11.02;;
32228;SDS011;18717;48.034;11.186;2024-03-29T11:13:29;11.55;;;11.05;;
32228;SDS011;18717;48.034;11.186;2024-03-29T11:16:00;12.20;;;11.70;;
32228;SDS011;18717;48.034;11.186;2024-03-29T11:18:27;11.73;;;11.07;;
32228;SDS011;18717;48.034;11.186;2024-03-29T11:20:54;11.63;;;11.13;;
32228;SDS011;18717;48.034;11.186;2024-03-29T11:23:22;11.98;;;11.55;;
32228;SDS011;18717;48.034;11.186;2024-03-29T11:25:49;11.20;;;10.70;;
32228;SDS011;18717;48.034;11.186;2024-03-29T11:28:22;11.40;;;10.90;;
32228;SDS011;18717;48.034;11.186;2024-03-29T11:30:53;11.48;;;10.90;;
32228;SDS011;18717;48.034;11.186;2024-03-29T11:33:28;11.70;;;11.10;;
32228;SDS011;18717;48.034;11.186;2024-03-29T11:35:56;11.43;;;10.80;;
32228;SDS011;18717;48.034;11.186;2024-03-29T11:38:29;11.30;;;10.70;;
32228;SDS011;18717;48.034;11.186;2024-03-29T11:41:01;11.25;;;10.85;;
32228;SDS011;18717;48.034;11.186;2024-03-29T11:45:59;11.00;;;10.50;;
32228;SDS011;18717;48.034;11.186;2024-03-29T11:48:27;12.25;;;11.75;;
32228;SDS011;18717;48.034;11.186;2024-03-29T11:50:54;10.95;;;10.55;;
32228;SDS011;18717;48.034;11.186;2024-03-29T11:53:21;12.43;;;11.93;;
32228;SDS011;18717;48.034;11.186;2024-03-29T11:55:48;12.43;;;11.88;;
32228;SDS011;18717;48.034;11.186;2024-03-29T11:58:19;11.95;;;11.45;;
32228;SDS011;18717;48.034;11.186;2024-03-29T12:00:46;11.65;;;11.05;;
32228;SDS011;18717;48.034;11.186;2024-03-29T12:03:15;11.13;;;10.73;;
32228;SDS011;18717;48.034;11.186;2024-03-29T12:05:42;11.95;;;11.45;;
32228;SDS011;18717;48.034;11.186;2024-03-29T12:08:09;11.90;;;11.40;;
32228;SDS011;18717;48.034;11.186;2024-03-29T12:10:36;11.65;;;11.15;;
32228;SDS011;18717;48.034;11.186;2024-03-29T12:13:04;11.90;;;11.40;;
32228;SDS011;18717;48.034;11.186;2024-03-29T12:15:31;12.82;;;12.23;;
32228;SDS011;18717;48.034;11.186;2024-03-29T12:17:58;12.32;;;11.82;;
32228;SDS011;18717;48.034;11.186;2024-03-29T12:20:28;12.05;;;11.55;;
32228;SDS011;18717;48.034;11.186;2024-03-29T12:22:55;11.98;;;11.48;;
32228;SDS011;18717;48.034;11.186;2024-03-29T12:25:21;11.55;;;11.15;;
32228;SDS011;18717;48.034;11.186;2024-03-29T12:27:48;12.02;;;11.52;;
32228;SDS011;18717;48.034;11.186;2024-03-29T12:30:15;12.70;;;12.13;;
32228;SDS011;18717;48.034;11.186;2024-03-29T12:32:42;11.48;;;10.98;;
32228;SDS011;18717;48.034;11.186;2024-03-29T12:35:09;12.07;;;11.48;;
32228;SDS011;18717;48.034;11.186;2024-03-29T12:37:37;12.07;;;11.63;;
32228;SDS011;18717;48.034;11.186;2024-03-29T12:40:04;11.98;;;11.43;;
32228;SDS011;18717;48.034;11.186;2024-03-29T12:42:38;11.98;;;11.57;;
32228;SDS011;18717;48.034;11.186;2024-03-29T12:45:05;12.18;;;11.63;;
32228;SDS011;18717;48.034;11.186;2024-03-29T12:47:32;12.68;;;12.18;;
32228;SDS011;18717;48.034;11.186;2024-03-29T12:50:00;12.50;;;12.00;;
32228;SDS011;18717;48.034;11.186;2024-03-29T12:52:35;11.60;;;11.10;;
32228;SDS011;18717;48.034;11.186;2024-03-29T12:55:04;12.10;;;11.60;;
32228;SDS011;18717;48.034;11.186;2024-03-29T12:57:33;11.82;;;11.40;;
32228;SDS011;18717;48.034;11.186;2024-03-29T12:59:59;12.93;;;12.23;;
32228;SDS011;18717;48.034;11.186;2024-03-29T13:02:26;12.73;;;12.23;;
32228;SDS011;18717;48.034;11.186;2024-03-29T13:04:53;12.40;;;11.90;;
32228;SDS011;18717;48.034;11.186;2024-03-29T13:07:20;12.40;;;11.88;;
32228;SDS011;18717;48.034;11.186;2024-03-29T13:09:48;12.70;;;12.20;;
32228;SDS011;18717;48.034;11.186;2024-03-29T13:12:15;12.25;;;11.65;;
32228;SDS011;18717;48.034;11.186;2024-03-29T13:14:41;12.20;;;11.70;;
32228;SDS011;18717;48.034;11.186;2024-03-29T13:17:09;11.70;;;11.20;;
32228;SDS011;18717;48.034;11.186;2024-03-29T13:19:35;11.85;;;11.40;;
32228;SDS011;18717;48.034;11.186;2024-03-29T13:22:02;12.02;;;11.55;;
32228;SDS011;18717;48.034;11.186;2024-03-29T13:24:31;11.52;;;11.10;;
32228;SDS011;18717;48.034;11.186;2024-03-29T13:26:59;12.55;;;12.05;;
32228;SDS011;18717;48.034;11.186;2024-03-29T13:29:26;12.55;;;12.05;;
32228;SDS011;18717;48.034;11.186;2024-03-29T13:31:53;11.77;;;11.27;;
32228;SDS011;18717;48.034;11.186;2024-03-29T13:34:20;12.77;;;12.27;;
32228;SDS011;18717;48.034;11.186;2024-03-29T13:36:46;12.45;;;11.95;;
32228;SDS011;18717;48.034;11.186;2024-03-29T13:39:14;12.32;;;11.82;;
32228;SDS011;18717;48.034;11.186;2024-03-29T13:41:41;12.27;;;11.77;;
32228;SDS011;18717;48.034;11.186;2024-03-29T13:44:09;11.88;;;11.48;;
32228;SDS011;18717;48.034;11.186;2024-03-29T13:46:36;12.30;;;11.80;;
32228;SDS011;18717;48.034;11.186;2024-03-29T13:49:03;11.60;;;11.20;;
32228;SDS011;18717;48.034;11.186;2024-03-29T13:51:30;12.88;;;12.38;;
32228;SDS011;18717;48.034;11.186;2024-03-29T13:53:56;12.65;;;11.85;;
32228;SDS011;18717;48.034;11.186;2024-03-29T13:56:24;12.07;;;11.57;;
32228;SDS011;18717;48.034;11.186;2024-03-29T13:58:50;11.95;;;11.45;;
32228;SDS011;18717;48.034;11.186;2024-03-29T14:01:19;12.23;;;11.63;;
32228;SDS011;18717;48.034;11.186;2024-03-29T14:03:46;11.60;;;11.20;;
32228;SDS011;18717;48.034;11.186;2024-03-29T14:06:12;12.68;;;12.13;;
32228;SDS011;18717;48.034;11.186;2024-03-29T14:08:39;12.30;;;11.80;;
32228;SDS011;18717;48.034;11.186;2024-03-29T14:11:06;11.70;;;11.30;;
32228;SDS011;18717;48.034;11.186;2024-03-29T14:13:33;12.23;;;11.73;;
32228;SDS011;18717;48.034;11.186;2024-03-29T14:16:00;12.38;;;11.90;;
32228;SDS011;18717;48.034;11.186;2024-03-29T14:18:30;12.43;;;11.93;;
32228;SDS011;18717;48.034;11.186;2024-03-29T14:20:57;12.48;;;11.98;;
32228;SDS011;18717;48.034;11.186;2024-03-29T14:23:23;12.68;;;12.18;;
32228;SDS011;18717;48.034;11.186;2024-03-29T14:25:50;12.05;;;11.55;;